Terminal Aerodrome Forecast
Issued by NWS Indianapolis, IN

Home | Current Version | Previous Version | Text Only | Print | Product List | Glossary On
Versions: 1 2 3 4 5 6 7 8 9 10 11 12 13 14 15 16 17 18 19 20 21 22 23 24
000
FTUS43 KIND 292000 AAA
TAFIND
TAF AMD
KIND 292023Z 2920/3024 19020G30KT P6SM OVC100
     FM292100 19019G27KT P6SM -RA BKN050
     FM300200 24017G25KT P6SM VCSH SCT025 OVC040
     FM300500 28014KT P6SM BKN025
     FM301100 29012KT P6SM SCT250=

USA.gov is the U.S. government's official web portal to all federal, state and local government web resources and services.